createdAt,value
2023-03-26T00:02:23.508Z,5.70
2023-03-26T00:04:53.212Z,6.40
2023-03-26T00:07:21.207Z,6.47
2023-03-26T00:09:49.505Z,5.77
2023-03-26T00:12:18.702Z,6.03
2023-03-26T00:14:48.084Z,5.47
2023-03-26T00:17:16.083Z,5.53
2023-03-26T00:19:44.156Z,5.10
2023-03-26T00:22:13.632Z,4.83
2023-03-26T00:24:45.867Z,4.67
2023-03-26T00:27:14.604Z,4.90
2023-03-26T00:29:42.623Z,5.10
2023-03-26T00:32:11.984Z,4.80
2023-03-26T00:34:41.318Z,4.53
2023-03-26T00:37:12.523Z,5.60
2023-03-26T00:39:40.680Z,4.90
2023-03-26T00:42:08.649Z,4.23
2023-03-26T00:44:36.913Z,4.80
2023-03-26T00:47:04.929Z,5.00
2023-03-26T00:49:34.524Z,4.70
2023-03-26T00:52:03.118Z,4.00
2023-03-26T00:54:31.288Z,4.00
2023-03-26T00:56:59.329Z,3.23
2023-03-26T00:59:30.315Z,3.57
2023-03-26T01:01:58.510Z,3.53
2023-03-26T01:04:30.873Z,3.40
2023-03-26T01:07:03.924Z,3.60
2023-03-26T01:09:35.884Z,3.80
2023-03-26T01:12:06.725Z,3.37
2023-03-26T01:14:34.912Z,3.67
2023-03-26T01:17:05.997Z,3.53
2023-03-26T01:19:48.664Z,3.10
2023-03-26T01:22:20.302Z,2.80
2023-03-26T01:24:53.825Z,3.83
2023-03-26T01:27:36.249Z,3.13
2023-03-26T01:30:12.089Z,3.17
2023-03-26T01:33:00.735Z,2.53
2023-03-26T01:35:37.166Z,2.60
2023-03-26T01:38:15.280Z,3.07
2023-03-26T01:40:49.460Z,3.20
2023-03-26T01:43:29.683Z,3.07
2023-03-26T01:46:00.942Z,3.90
2023-03-26T01:48:34.582Z,3.33
2023-03-26T01:51:02.714Z,3.43
2023-03-26T01:53:31.848Z,3.90
2023-03-26T01:56:12.793Z,2.50
2023-03-26T01:58:50.152Z,3.10
2023-03-26T02:01:27.285Z,2.83
2023-03-26T02:04:02.764Z,2.37
2023-03-26T02:06:38.503Z,2.93
2023-03-26T02:09:09.122Z,2.20
2023-03-26T02:11:41.102Z,2.07
2023-03-26T02:14:10.581Z,2.07
2023-03-26T02:16:38.687Z,2.10
2023-03-26T02:19:15.966Z,2.23
2023-03-26T02:21:44.202Z,2.47
2023-03-26T02:24:12.192Z,2.63
2023-03-26T02:26:41.566Z,2.90
2023-03-26T02:29:10.724Z,2.30
2023-03-26T02:31:38.858Z,2.40
2023-03-26T02:34:06.993Z,2.17
2023-03-26T02:36:37.358Z,2.30
2023-03-26T02:39:06.273Z,2.30
2023-03-26T02:41:34.416Z,1.73
2023-03-26T02:44:03.860Z,1.80
2023-03-26T02:46:31.954Z,1.80
2023-03-26T02:49:00.133Z,1.70
2023-03-26T02:51:28.842Z,1.97
2023-03-26T02:53:56.847Z,2.27
2023-03-26T02:56:24.848Z,2.03
2023-03-26T02:58:52.869Z,2.23
2023-03-26T03:01:22.765Z,1.70
2023-03-26T03:03:50.845Z,1.63
2023-03-26T03:06:18.988Z,1.90
2023-03-26T03:08:47.612Z,2.07
2023-03-26T03:11:17.209Z,2.10
2023-03-26T03:13:46.250Z,2.10
2023-03-26T03:16:14.343Z,2.37
2023-03-26T03:18:43.856Z,1.93
2023-03-26T03:21:11.854Z,2.03
2023-03-26T03:23:39.890Z,2.23
2023-03-26T03:26:14.449Z,2.80
2023-03-26T03:28:42.536Z,2.20
2023-03-26T03:31:10.586Z,2.20
2023-03-26T03:33:38.684Z,2.40
2023-03-26T03:36:19.648Z,2.70
2023-03-26T03:38:48.205Z,2.27
2023-03-26T03:41:18.483Z,2.67
2023-03-26T03:43:47.002Z,3.20
2023-03-26T03:46:15.084Z,2.50
2023-03-26T03:48:48.225Z,2.27
2023-03-26T03:51:18.269Z,2.30
2023-03-26T03:53:47.459Z,2.10
2023-03-26T03:56:17.521Z,2.63
2023-03-26T03:58:47.345Z,2.80
2023-03-26T04:01:16.852Z,2.60
2023-03-26T04:03:46.541Z,2.60
2023-03-26T04:06:18.933Z,2.73
2023-03-26T04:08:48.621Z,2.60
2023-03-26T04:11:16.652Z,1.83
2023-03-26T04:13:45.304Z,1.93
2023-03-26T04:16:13.466Z,1.40
2023-03-26T04:18:41.987Z,1.90
2023-03-26T04:21:12.543Z,1.63
2023-03-26T04:23:42.344Z,2.10
2023-03-26T04:26:17.590Z,1.60
2023-03-26T04:28:48.883Z,1.90
2023-03-26T04:31:19.081Z,1.53
2023-03-26T04:33:48.854Z,1.57
2023-03-26T04:36:17.787Z,1.80
2023-03-26T04:38:49.254Z,1.60
2023-03-26T04:41:18.935Z,1.77
2023-03-26T04:43:50.623Z,1.53
2023-03-26T04:46:21.734Z,1.73
2023-03-26T04:48:50.228Z,1.70
2023-03-26T04:51:19.034Z,1.97
2023-03-26T04:53:52.736Z,1.60
2023-03-26T04:56:32.068Z,1.70
2023-03-26T04:59:01.987Z,1.67
2023-03-26T05:01:30.848Z,1.90
2023-03-26T05:03:59.585Z,1.90
2023-03-26T05:06:30.362Z,1.90
2023-03-26T05:08:58.467Z,2.47
2023-03-26T05:11:27.842Z,2.20
2023-03-26T05:13:57.029Z,1.77
2023-03-26T05:16:26.032Z,2.00
2023-03-26T05:18:54.123Z,2.20
2023-03-26T05:21:22.467Z,2.30
2023-03-26T05:23:51.009Z,3.10
2023-03-26T05:26:19.793Z,2.33
2023-03-26T05:28:49.283Z,2.53
2023-03-26T05:31:21.140Z,2.33
2023-03-26T05:33:49.688Z,3.13
2023-03-26T05:36:19.168Z,2.93
2023-03-26T05:38:49.327Z,2.13
2023-03-26T05:41:17.989Z,2.70
2023-03-26T05:43:47.776Z,2.20
2023-03-26T05:46:18.096Z,2.03
2023-03-26T05:48:46.680Z,2.50
2023-03-26T05:51:15.644Z,2.47
2023-03-26T05:53:44.312Z,2.60
2023-03-26T05:56:12.346Z,2.40
2023-03-26T05:58:42.078Z,2.33
2023-03-26T06:01:17.034Z,2.33
2023-03-26T06:03:47.287Z,2.33
2023-03-26T06:06:17.341Z,2.40
2023-03-26T06:08:46.869Z,3.13
2023-03-26T06:11:14.873Z,2.40
2023-03-26T06:13:43.726Z,2.70
2023-03-26T06:16:26.402Z,2.37
2023-03-26T06:18:58.006Z,2.37
2023-03-26T06:21:26.081Z,2.40
2023-03-26T06:23:54.529Z,2.40
2023-03-26T06:26:22.562Z,2.63
2023-03-26T06:28:50.681Z,2.20
2023-03-26T06:31:19.308Z,2.70
2023-03-26T06:33:48.780Z,2.87
2023-03-26T06:36:18.341Z,3.00
2023-03-26T06:38:46.381Z,3.43
2023-03-26T06:41:14.783Z,3.53
2023-03-26T06:43:42.806Z,3.67
2023-03-26T06:46:11.871Z,3.77
2023-03-26T06:48:40.005Z,3.70
2023-03-26T06:51:08.433Z,3.50
2023-03-26T06:53:37.830Z,3.47
2023-03-26T06:56:08.488Z,2.93
2023-03-26T06:58:37.168Z,3.33
2023-03-26T07:01:05.505Z,3.63
2023-03-26T07:03:34.078Z,3.37
2023-03-26T07:06:02.174Z,3.83
2023-03-26T07:08:30.887Z,3.83
2023-03-26T07:11:00.263Z,3.97
2023-03-26T07:13:28.330Z,3.20
2023-03-26T07:15:56.352Z,3.57
2023-03-26T07:18:24.425Z,4.23
2023-03-26T07:20:53.420Z,3.80
2023-03-26T07:23:22.344Z,4.20
2023-03-26T07:25:51.628Z,4.00
2023-03-26T07:28:28.496Z,4.00
2023-03-26T07:31:11.995Z,3.93
2023-03-26T07:33:46.777Z,5.03
2023-03-26T07:36:22.693Z,4.43
2023-03-26T07:39:06.542Z,3.87
2023-03-26T07:41:42.730Z,4.03
2023-03-26T07:44:35.979Z,4.50
2023-03-26T07:47:11.765Z,4.33
2023-03-26T07:49:40.112Z,4.07
2023-03-26T07:52:09.707Z,3.70
2023-03-26T07:54:38.071Z,4.93
2023-03-26T07:57:12.520Z,3.37
2023-03-26T07:59:50.626Z,3.80
2023-03-26T08:02:41.450Z,3.77
2023-03-26T08:05:19.841Z,3.50
2023-03-26T08:08:00.019Z,4.00
2023-03-26T08:10:32.442Z,3.63
2023-03-26T08:13:08.986Z,3.80
2023-03-26T08:15:44.002Z,3.57
2023-03-26T08:18:27.548Z,3.03
2023-03-26T08:20:59.367Z,2.80
2023-03-26T08:23:34.990Z,3.17
2023-03-26T08:26:06.944Z,3.50
2023-03-26T08:28:48.628Z,3.40
2023-03-26T08:31:19.424Z,3.27
2023-03-26T08:33:47.740Z,3.00
2023-03-26T08:36:15.749Z,3.80
2023-03-26T08:38:45.132Z,3.57
2023-03-26T08:41:59.065Z,3.40
2023-03-26T08:44:52.296Z,3.10
2023-03-26T08:47:55.611Z,3.63
2023-03-26T08:50:54.241Z,3.47
2023-03-26T08:53:39.121Z,3.07
2023-03-26T08:56:12.884Z,3.10
2023-03-26T08:59:18.426Z,3.10
2023-03-26T09:02:25.129Z,3.00
2023-03-26T09:05:38.484Z,3.73
2023-03-26T09:08:54.284Z,3.57
2023-03-26T09:11:58.518Z,3.40
2023-03-26T09:14:59.735Z,2.87
2023-03-26T09:18:05.543Z,3.97
2023-03-26T09:21:15.480Z,3.30
2023-03-26T09:24:13.086Z,3.70
2023-03-26T09:26:48.345Z,3.50
2023-03-26T09:29:48.912Z,3.37
2023-03-26T09:32:49.838Z,3.20
2023-03-26T09:35:42.949Z,2.73
2023-03-26T09:38:31.108Z,2.40
2023-03-26T09:41:09.320Z,3.47
2023-03-26T09:43:54.372Z,3.40
2023-03-26T09:46:31.822Z,3.40
2023-03-26T09:49:23.076Z,3.33
2023-03-26T09:52:17.648Z,2.90
2023-03-26T09:55:10.999Z,3.27
2023-03-26T09:58:02.244Z,3.30
2023-03-26T10:00:37.419Z,2.87
2023-03-26T10:03:22.011Z,2.93
2023-03-26T10:05:59.057Z,2.73
2023-03-26T10:08:39.290Z,2.77
2023-03-26T10:11:17.686Z,3.30
2023-03-26T10:14:00.642Z,2.73
2023-03-26T10:16:37.828Z,2.87
2023-03-26T10:19:24.396Z,2.90
2023-03-26T10:22:03.748Z,3.63
2023-03-26T10:24:47.894Z,3.20
2023-03-26T10:27:34.178Z,2.83
2023-03-26T10:30:22.186Z,2.90
2023-03-26T10:33:00.191Z,3.20
2023-03-26T10:35:42.763Z,3.53
2023-03-26T10:38:19.315Z,3.10
2023-03-26T10:40:59.866Z,2.80
2023-03-26T10:44:05.236Z,3.03
2023-03-26T10:47:08.430Z,3.33
2023-03-26T10:50:22.978Z,2.67
2023-03-26T10:52:56.185Z,2.97
2023-03-26T10:55:29.672Z,2.97
2023-03-26T10:58:01.103Z,3.03
2023-03-26T11:00:31.118Z,3.00
2023-03-26T11:03:19.871Z,2.80
2023-03-26T11:05:52.255Z,3.00
2023-03-26T11:08:32.123Z,2.90
2023-03-26T11:11:09.820Z,3.40
2023-03-26T11:13:47.641Z,2.97
2023-03-26T11:16:24.305Z,3.07
2023-03-26T11:19:00.445Z,3.47
2023-03-26T11:21:34.892Z,3.17
2023-03-26T11:24:25.530Z,2.47
2023-03-26T11:26:57.848Z,3.00
2023-03-26T11:29:52.323Z,4.07
2023-03-26T11:32:24.943Z,2.70
2023-03-26T11:35:02.419Z,3.07
2023-03-26T11:37:34.368Z,2.47
2023-03-26T11:40:07.230Z,2.40
2023-03-26T11:42:35.361Z,2.63
2023-03-26T11:45:06.837Z,3.13
2023-03-26T11:47:39.971Z,3.17
2023-03-26T11:50:16.933Z,2.67
2023-03-26T11:52:47.077Z,2.60
2023-03-26T11:55:15.793Z,3.27
2023-03-26T11:57:48.998Z,2.90
2023-03-26T12:00:21.272Z,3.03
2023-03-26T12:02:50.805Z,2.50
2023-03-26T12:05:22.765Z,2.60
2023-03-26T12:07:55.935Z,3.80
2023-03-26T12:10:34.416Z,3.30
2023-03-26T12:13:06.550Z,3.07
2023-03-26T12:15:34.622Z,2.87
2023-03-26T12:18:24.517Z,3.00
2023-03-26T12:21:04.620Z,2.57
2023-03-26T12:23:39.057Z,2.80
2023-03-26T12:26:15.716Z,2.50
2023-03-26T12:28:48.742Z,2.50
2023-03-26T12:31:19.522Z,2.73
2023-03-26T12:34:05.971Z,2.67
2023-03-26T12:36:36.420Z,2.30
2023-03-26T12:40:09.378Z,2.17
2023-03-26T12:44:51.243Z,2.97
2023-03-26T12:45:17.045Z,2.47
2023-03-26T12:47:59.994Z,2.77
2023-03-26T12:50:44.126Z,2.70
2023-03-26T12:53:42.972Z,2.90
2023-03-26T12:56:21.917Z,2.40
2023-03-26T12:59:15.664Z,2.50
2023-03-26T13:01:55.241Z,3.30
2023-03-26T13:05:02.337Z,2.97
2023-03-26T13:07:48.231Z,3.17
2023-03-26T13:10:49.547Z,2.83
2023-03-26T13:13:41.299Z,2.43
2023-03-26T13:16:14.879Z,3.17
2023-03-26T13:18:48.512Z,2.77
2023-03-26T13:21:24.535Z,2.80
2023-03-26T13:24:00.634Z,2.80
2023-03-26T13:26:43.032Z,2.40
2023-03-26T13:29:20.466Z,2.90
2023-03-26T13:31:59.894Z,2.63
2023-03-26T13:34:38.105Z,2.60
2023-03-26T13:37:15.979Z,2.30
2023-03-26T13:39:53.977Z,2.60
2023-03-26T13:42:37.780Z,3.33
2023-03-26T13:45:23.404Z,2.40
2023-03-26T13:47:57.421Z,2.60
2023-03-26T13:50:28.728Z,2.17
2023-03-26T13:53:01.672Z,2.70
2023-03-26T13:55:33.143Z,2.70
2023-03-26T13:58:07.446Z,2.33
2023-03-26T14:00:49.733Z,2.30
2023-03-26T14:03:25.418Z,2.70
2023-03-26T14:05:58.121Z,2.93
2023-03-26T14:08:32.985Z,2.80
2023-03-26T14:11:10.873Z,3.30
2023-03-26T14:13:47.380Z,2.63
2023-03-26T14:16:19.729Z,2.50
2023-03-26T14:18:53.504Z,2.40
2023-03-26T14:21:45.465Z,2.53
2023-03-26T14:24:32.345Z,2.40
2023-03-26T14:27:20.056Z,2.90
2023-03-26T14:30:07.484Z,2.47
2023-03-26T14:32:53.620Z,2.67
2023-03-26T14:35:33.653Z,2.57
2023-03-26T14:38:29.774Z,4.53
2023-03-26T14:40:59.363Z,5.10
2023-03-26T14:43:49.348Z,3.00
2023-03-26T14:46:30.410Z,2.10
2023-03-26T14:49:26.553Z,2.30
2023-03-26T14:52:02.456Z,2.03
2023-03-26T14:54:34.521Z,2.23
2023-03-26T14:57:30.054Z,2.20
2023-03-26T15:00:32.823Z,1.87
2023-03-26T15:03:39.559Z,1.90
2023-03-26T15:06:45.465Z,2.13
2023-03-26T15:09:51.544Z,2.10
2023-03-26T15:12:35.911Z,1.70
2023-03-26T15:15:46.540Z,1.97
2023-03-26T15:18:57.921Z,2.60
2023-03-26T15:21:54.155Z,1.73
2023-03-26T15:25:00.279Z,1.90
2023-03-26T15:27:51.986Z,1.93
2023-03-26T15:30:58.858Z,2.20
2023-03-26T15:34:02.831Z,1.80
2023-03-26T15:37:05.254Z,2.23
2023-03-26T15:39:59.529Z,1.80
2023-03-26T15:42:37.881Z,1.53
2023-03-26T15:45:23.060Z,1.63
2023-03-26T15:48:37.740Z,1.87
2023-03-26T15:51:22.638Z,1.80
2023-03-26T15:53:58.795Z,1.50
2023-03-26T15:56:49.165Z,1.90
2023-03-26T15:59:31.629Z,1.90
2023-03-26T16:02:12.093Z,2.00
2023-03-26T16:04:50.399Z,2.00
2023-03-26T16:07:41.393Z,1.70
2023-03-26T16:10:22.158Z,4.63
2023-03-26T16:13:14.539Z,3.10
2023-03-26T16:15:43.380Z,2.03
2023-03-26T16:18:33.312Z,1.60
2023-03-26T16:21:38.503Z,1.83
2023-03-26T16:24:34.795Z,1.73
2023-03-26T16:27:26.192Z,1.40
2023-03-26T16:30:29.066Z,1.50
2023-03-26T16:33:05.335Z,1.27
2023-03-26T16:36:01.891Z,1.37
2023-03-26T16:38:50.198Z,1.70
2023-03-26T16:41:23.040Z,1.70
2023-03-26T16:44:02.276Z,2.37
2023-03-26T16:46:37.443Z,1.83
2023-03-26T16:49:17.880Z,1.50
2023-03-26T16:52:06.760Z,1.47
2023-03-26T16:54:45.995Z,1.40
2023-03-26T16:57:27.162Z,1.47
2023-03-26T17:00:17.446Z,1.93
2023-03-26T17:02:56.838Z,5.80
2023-03-26T17:05:35.088Z,6.67
2023-03-26T17:08:11.097Z,6.30
2023-03-26T17:10:46.966Z,3.50
2023-03-26T17:13:27.216Z,1.97
2023-03-26T17:16:05.863Z,1.50
2023-03-26T17:18:44.166Z,1.60
2023-03-26T17:21:18.070Z,1.80
2023-03-26T17:24:01.407Z,1.97
2023-03-26T17:26:39.054Z,1.73
2023-03-26T17:29:23.575Z,1.70
2023-03-26T17:32:00.354Z,1.60
2023-03-26T17:35:00.590Z,2.90
2023-03-26T17:37:45.667Z,4.33
2023-03-26T17:40:52.014Z,4.20
2023-03-26T17:43:51.057Z,2.10
2023-03-26T17:46:31.807Z,1.93
2023-03-26T17:49:04.160Z,1.77
2023-03-26T17:51:40.291Z,2.13
2023-03-26T17:54:14.639Z,1.60
2023-03-26T17:56:43.343Z,1.87
2023-03-26T17:59:23.170Z,1.67
2023-03-26T18:01:56.995Z,1.80
2023-03-26T18:04:32.260Z,1.63
2023-03-26T18:07:18.389Z,1.73
2023-03-26T18:10:02.339Z,2.83
2023-03-26T18:13:08.420Z,3.57
2023-03-26T18:15:50.458Z,2.30
2023-03-26T18:18:24.052Z,1.97
2023-03-26T18:20:54.898Z,1.40
2023-03-26T18:23:26.833Z,1.60
2023-03-26T18:25:58.964Z,1.40
2023-03-26T18:28:35.141Z,1.33
2023-03-26T18:31:10.813Z,1.97
2023-03-26T18:33:48.596Z,1.40
2023-03-26T18:36:18.580Z,1.30
2023-03-26T18:38:48.856Z,1.23
2023-03-26T18:41:24.824Z,1.53
2023-03-26T18:43:52.973Z,1.50
2023-03-26T18:46:24.622Z,1.40
2023-03-26T18:48:55.640Z,1.47
2023-03-26T18:51:26.840Z,1.57
2023-03-26T18:53:57.664Z,1.60
2023-03-26T18:56:30.921Z,1.43
2023-03-26T18:59:01.274Z,1.20
2023-03-26T19:01:31.769Z,1.20
2023-03-26T19:04:05.208Z,1.40
2023-03-26T19:06:38.297Z,1.30
2023-03-26T19:09:16.705Z,1.87
2023-03-26T19:11:57.090Z,1.50
2023-03-26T19:14:28.569Z,1.47
2023-03-26T19:17:00.572Z,1.40
2023-03-26T19:19:32.984Z,1.70
2023-03-26T19:22:02.781Z,1.50
2023-03-26T19:24:30.911Z,1.60
2023-03-26T19:26:59.129Z,1.43
2023-03-26T19:29:30.557Z,1.47
2023-03-26T19:32:04.412Z,1.27
2023-03-26T19:34:36.092Z,1.83
2023-03-26T19:37:16.918Z,2.47
2023-03-26T19:39:47.426Z,1.67
2023-03-26T19:42:18.303Z,2.20
2023-03-26T19:44:46.682Z,1.93
2023-03-26T19:47:18.632Z,1.90
2023-03-26T19:49:54.176Z,2.17
2023-03-26T19:52:26.836Z,1.73
2023-03-26T19:54:59.459Z,1.73
2023-03-26T19:57:32.892Z,2.10
2023-03-26T20:00:01.370Z,1.90
2023-03-26T20:02:29.663Z,1.70
2023-03-26T20:04:59.071Z,3.17
2023-03-26T20:07:35.686Z,2.00
2023-03-26T20:10:05.822Z,1.70
2023-03-26T20:12:34.038Z,1.80
2023-03-26T20:15:02.886Z,2.00
2023-03-26T20:17:34.844Z,2.00
2023-03-26T20:20:05.885Z,1.77
2023-03-26T20:22:33.897Z,2.13
2023-03-26T20:25:03.202Z,2.00
2023-03-26T20:27:31.306Z,2.70
2023-03-26T20:29:59.327Z,1.83
2023-03-26T20:32:27.521Z,1.67
2023-03-26T20:34:57.712Z,1.70
2023-03-26T20:37:27.542Z,1.93
2023-03-26T20:39:55.725Z,1.70
2023-03-26T20:42:23.756Z,1.90
2023-03-26T20:44:51.764Z,1.70
2023-03-26T20:47:19.821Z,1.50
2023-03-26T20:49:47.839Z,1.70
2023-03-26T20:52:16.145Z,1.87
2023-03-26T20:54:45.864Z,1.60
2023-03-26T20:57:13.984Z,1.97
2023-03-26T20:59:42.358Z,1.80
2023-03-26T21:02:12.860Z,1.87
2023-03-26T21:04:41.472Z,1.70
2023-03-26T21:07:17.532Z,1.63
2023-03-26T21:09:48.726Z,1.60
2023-03-26T21:12:22.285Z,1.57
2023-03-26T21:14:50.996Z,1.90
2023-03-26T21:17:22.144Z,1.90
2023-03-26T21:19:51.932Z,2.30
2023-03-26T21:22:29.886Z,1.93
2023-03-26T21:25:06.476Z,1.70
2023-03-26T21:27:43.460Z,1.90
2023-03-26T21:30:16.240Z,1.57
2023-03-26T21:32:46.269Z,1.70
2023-03-26T21:35:16.165Z,2.00
2023-03-26T21:37:48.428Z,2.00
2023-03-26T21:40:21.037Z,2.07
2023-03-26T21:42:51.603Z,1.73
2023-03-26T21:45:21.060Z,1.80
2023-03-26T21:47:50.034Z,1.77
2023-03-26T21:50:20.656Z,1.50
2023-03-26T21:52:50.952Z,2.43
2023-03-26T21:55:22.320Z,2.27
2023-03-26T21:58:26.040Z,2.10
2023-03-26T22:01:11.384Z,1.57
2023-03-26T22:03:54.026Z,1.60
2023-03-26T22:06:28.046Z,2.10
2023-03-26T22:08:56.428Z,1.53
2023-03-26T22:11:25.898Z,1.60
2023-03-26T22:13:55.559Z,1.60
2023-03-26T22:16:25.365Z,1.60
2023-03-26T22:18:54.241Z,1.80
2023-03-26T22:21:23.507Z,1.83
2023-03-26T22:23:53.746Z,1.63
2023-03-26T22:26:23.198Z,1.43
2023-03-26T22:28:53.204Z,2.30
2023-03-26T22:31:21.233Z,1.77
2023-03-26T22:33:49.279Z,2.10
2023-03-26T22:36:23.279Z,2.07
2023-03-26T22:38:54.252Z,1.40
2023-03-26T22:41:22.778Z,1.40
2023-03-26T22:43:52.830Z,1.67
2023-03-26T22:46:21.003Z,1.20
2023-03-26T22:48:49.453Z,1.47
2023-03-26T22:51:17.582Z,1.30
2023-03-26T22:53:46.071Z,1.60
2023-03-26T22:56:15.402Z,1.90
2023-03-26T22:58:43.647Z,1.70
2023-03-26T23:01:16.787Z,1.33
2023-03-26T23:03:45.085Z,1.33
2023-03-26T23:06:13.578Z,1.40
2023-03-26T23:08:42.331Z,1.50
2023-03-26T23:11:12.657Z,1.60
2023-03-26T23:13:40.933Z,1.43
2023-03-26T23:16:10.229Z,1.57
2023-03-26T23:18:40.257Z,1.40
2023-03-26T23:21:13.470Z,1.40
2023-03-26T23:23:41.667Z,1.40
2023-03-26T23:26:09.874Z,1.47
2023-03-26T23:28:38.604Z,1.50
2023-03-26T23:31:09.544Z,1.60
2023-03-26T23:33:46.387Z,1.70
2023-03-26T23:36:17.703Z,1.67
2023-03-26T23:38:47.641Z,1.80
2023-03-26T23:41:16.427Z,1.57
2023-03-26T23:43:53.530Z,1.40
2023-03-26T23:46:24.543Z,1.60
2023-03-26T23:48:55.016Z,1.70
2023-03-26T23:51:24.136Z,1.60
2023-03-26T23:53:52.650Z,1.40
2023-03-26T23:56:21.033Z,1.60
2023-03-26T23:58:49.622Z,1.67
